createdAt,value
2022-12-01T00:00:54.318Z,88.06
2022-12-01T00:01:56.879Z,88.16
2022-12-01T00:03:00.164Z,88.03
2022-12-01T00:04:02.137Z,88.36
2022-12-01T00:05:04.037Z,88.29
2022-12-01T00:06:07.611Z,88.12
2022-12-01T00:07:09.466Z,88.00
2022-12-01T00:08:11.319Z,88.18
2022-12-01T00:09:32.566Z,88.09
2022-12-01T00:10:34.371Z,88.00
2022-12-01T00:11:36.744Z,88.54
2022-12-01T00:12:43.733Z,88.25
2022-12-01T00:13:45.558Z,88.42
2022-12-01T00:14:55.151Z,88.42
2022-12-01T00:15:57.008Z,87.75
2022-12-01T00:16:58.919Z,88.24
2022-12-01T00:18:01.620Z,88.11
2022-12-01T00:19:03.670Z,87.88
2022-12-01T00:20:06.717Z,88.09
2022-12-01T00:21:15.107Z,88.15
2022-12-01T00:22:16.996Z,87.60
2022-12-01T00:23:18.887Z,88.03
2022-12-01T00:24:21.846Z,87.85
2022-12-01T00:25:23.716Z,87.95
2022-12-01T00:26:26.441Z,88.46
2022-12-01T00:27:28.278Z,88.11
2022-12-01T00:28:30.132Z,88.05
2022-12-01T00:29:31.937Z,88.42
2022-12-01T00:30:34.479Z,88.48
2022-12-01T00:31:36.507Z,88.33
2022-12-01T00:32:38.835Z,88.43
2022-12-01T00:33:40.690Z,88.37
2022-12-01T00:34:42.564Z,88.33
2022-12-01T00:35:45.562Z,88.10
2022-12-01T00:36:47.434Z,87.92
2022-12-01T00:37:49.323Z,87.73
2022-12-01T00:38:54.616Z,87.88
2022-12-01T00:39:56.534Z,88.11
2022-12-01T00:40:58.421Z,87.69
2022-12-01T00:42:00.330Z,88.02
2022-12-01T00:43:02.631Z,88.07
2022-12-01T00:44:04.620Z,87.59
2022-12-01T00:45:06.955Z,87.21
2022-12-01T00:46:08.915Z,87.53
2022-12-01T00:47:10.841Z,87.12
2022-12-01T00:48:12.754Z,87.22
2022-12-01T00:49:14.961Z,86.91
2022-12-01T00:50:16.854Z,87.07
2022-12-01T00:51:18.763Z,87.36
2022-12-01T00:52:20.586Z,87.17
2022-12-01T00:53:23.055Z,86.89
2022-12-01T00:54:25.522Z,86.95
2022-12-01T00:55:27.478Z,86.77
2022-12-01T00:56:29.405Z,87.26
2022-12-01T00:57:31.284Z,87.30
2022-12-01T00:58:33.144Z,87.12
2022-12-01T00:59:36.137Z,87.07
2022-12-01T01:00:40.560Z,87.13
2022-12-01T01:01:42.545Z,86.62
2022-12-01T01:02:44.488Z,86.64
2022-12-01T01:03:46.536Z,86.45
2022-12-01T01:04:48.429Z,87.25
2022-12-01T01:05:50.273Z,86.83
2022-12-01T01:06:53.560Z,87.10
2022-12-01T01:07:55.491Z,87.21
2022-12-01T01:08:57.509Z,87.74
2022-12-01T01:09:59.333Z,87.40
2022-12-01T01:11:01.825Z,87.58
2022-12-01T01:12:03.865Z,87.70
2022-12-01T01:13:05.687Z,87.48
2022-12-01T01:14:07.759Z,87.29
2022-12-01T01:15:09.877Z,87.33
2022-12-01T01:16:15.320Z,87.38
2022-12-01T01:17:17.321Z,87.92
2022-12-01T01:18:19.194Z,87.46
2022-12-01T01:19:21.055Z,87.13
2022-12-01T01:20:23.090Z,87.84
2022-12-01T01:21:26.278Z,86.93
2022-12-01T01:22:28.135Z,87.75
2022-12-01T01:23:30.079Z,87.39
2022-12-01T01:24:31.879Z,87.34
2022-12-01T01:25:34.347Z,87.69
2022-12-01T01:26:37.275Z,87.56
2022-12-01T01:27:39.272Z,87.27
2022-12-01T01:28:44.290Z,87.34
2022-12-01T01:29:46.336Z,87.08
2022-12-01T01:30:48.587Z,87.39
2022-12-01T01:31:50.432Z,87.37
2022-12-01T01:32:52.361Z,86.80
2022-12-01T01:33:56.700Z,86.81
2022-12-01T01:34:58.531Z,86.96
2022-12-01T01:36:01.002Z,86.76
2022-12-01T01:37:02.801Z,87.33
2022-12-01T01:38:04.679Z,87.11
2022-12-01T01:39:07.635Z,87.60
2022-12-01T01:40:09.746Z,87.65
2022-12-01T01:41:12.065Z,87.53
2022-12-01T01:42:14.768Z,87.97
2022-12-01T01:43:17.598Z,88.29
2022-12-01T01:44:38.264Z,87.83
2022-12-01T01:45:40.135Z,88.23
2022-12-01T01:46:41.986Z,87.83
2022-12-01T01:47:43.885Z,87.78
2022-12-01T01:48:50.656Z,87.54
2022-12-01T01:49:53.892Z,87.92
2022-12-01T01:50:55.865Z,87.93
2022-12-01T01:51:58.279Z,87.45
2022-12-01T01:53:05.052Z,87.58
2022-12-01T01:54:10.090Z,87.63
2022-12-01T01:55:13.667Z,87.51
2022-12-01T01:56:15.510Z,87.31
2022-12-01T01:57:26.331Z,87.75
2022-12-01T01:58:28.263Z,87.41
2022-12-01T01:59:32.015Z,87.52
2022-12-01T02:00:34.631Z,87.36
2022-12-01T02:01:36.570Z,87.86
2022-12-01T02:02:41.059Z,87.45
2022-12-01T02:03:43.664Z,87.96
2022-12-01T02:04:51.709Z,87.53
2022-12-01T02:05:53.681Z,87.92
2022-12-01T02:06:55.571Z,87.97
2022-12-01T02:07:58.958Z,87.89
2022-12-01T02:09:00.850Z,87.56
2022-12-01T02:10:02.705Z,87.70
2022-12-01T02:11:20.667Z,88.06
2022-12-01T02:12:25.342Z,88.17
2022-12-01T02:13:34.378Z,88.04
2022-12-01T02:14:39.765Z,88.37
2022-12-01T02:15:48.227Z,88.01
2022-12-01T02:16:59.837Z,87.77
2022-12-01T02:18:23.071Z,87.63
2022-12-01T02:19:24.920Z,87.63
2022-12-01T02:20:29.593Z,88.06
2022-12-01T02:21:46.303Z,87.49
2022-12-01T02:23:03.157Z,87.39
2022-12-01T02:24:17.293Z,87.26
2022-12-01T02:25:20.966Z,87.23
2022-12-01T02:26:31.764Z,87.71
2022-12-01T02:27:42.637Z,87.78
2022-12-01T02:29:03.112Z,87.87
2022-12-01T02:30:28.363Z,87.52
2022-12-01T02:31:30.137Z,88.07
2022-12-01T02:32:35.004Z,88.23
2022-12-01T02:33:40.717Z,87.82
2022-12-01T02:34:57.074Z,88.23
2022-12-01T02:35:58.916Z,87.86
2022-12-01T02:37:06.459Z,87.52
2022-12-01T02:38:08.818Z,87.65
2022-12-01T02:39:29.768Z,88.06
2022-12-01T02:40:40.968Z,87.66
2022-12-01T02:41:51.573Z,88.04
2022-12-01T02:43:12.220Z,87.97
2022-12-01T02:44:29.290Z,87.36
2022-12-01T02:45:51.960Z,87.15
2022-12-01T02:46:59.626Z,87.23
2022-12-01T02:48:03.225Z,87.13
2022-12-01T02:49:08.627Z,87.56
2022-12-01T02:50:11.355Z,87.44
2022-12-01T02:51:15.381Z,87.07
2022-12-01T02:52:17.835Z,87.27
2022-12-01T02:53:20.159Z,87.45
2022-12-01T02:54:22.661Z,87.29
2022-12-01T02:55:24.516Z,87.21
2022-12-01T02:56:26.452Z,87.43
2022-12-01T02:57:30.318Z,87.65
2022-12-01T02:58:32.144Z,87.03
2022-12-01T02:59:34.014Z,87.66
2022-12-01T03:00:36.066Z,87.23
2022-12-01T03:01:42.750Z,87.37
2022-12-01T03:02:56.696Z,87.97
2022-12-01T03:04:09.321Z,88.11
2022-12-01T03:05:19.291Z,88.88
2022-12-01T03:06:49.550Z,88.31
2022-12-01T03:08:05.938Z,88.80
2022-12-01T03:09:23.008Z,88.20
2022-12-01T03:10:28.086Z,88.25
2022-12-01T03:11:36.198Z,88.34
2022-12-01T03:12:56.764Z,87.81
2022-12-01T03:14:18.837Z,87.86
2022-12-01T03:15:32.950Z,87.71
2022-12-01T03:16:41.548Z,87.62
2022-12-01T03:17:47.096Z,87.50
2022-12-01T03:18:52.961Z,87.88
2022-12-01T03:20:01.134Z,87.61
2022-12-01T03:21:05.893Z,87.52
2022-12-01T03:22:13.671Z,87.22
2022-12-01T03:23:18.165Z,87.23
2022-12-01T03:24:22.182Z,87.35
2022-12-01T03:25:26.523Z,87.36
2022-12-01T03:26:30.430Z,88.20
2022-12-01T03:27:33.763Z,87.87
2022-12-01T03:28:38.399Z,87.83
2022-12-01T03:29:43.477Z,87.82
2022-12-01T03:30:46.871Z,87.97
2022-12-01T03:31:51.565Z,88.18
2022-12-01T03:32:59.197Z,88.23
2022-12-01T03:34:05.267Z,87.57
2022-12-01T03:35:19.901Z,88.07
2022-12-01T03:36:35.180Z,88.15
2022-12-01T03:37:50.287Z,87.72
2022-12-01T03:38:55.842Z,87.63
2022-12-01T03:40:00.627Z,87.62
2022-12-01T03:41:07.805Z,87.56
2022-12-01T03:42:14.656Z,87.94
2022-12-01T03:43:20.864Z,87.59
2022-12-01T03:44:24.812Z,87.77
2022-12-01T03:45:45.065Z,87.19
2022-12-01T03:46:54.030Z,87.44
2022-12-01T03:47:56.007Z,87.52
2022-12-01T03:48:57.960Z,87.37
2022-12-01T03:50:00.738Z,87.43
2022-12-01T03:51:11.650Z,87.26
2022-12-01T03:52:19.504Z,87.45
2022-12-01T03:53:27.728Z,87.65
2022-12-01T03:54:38.845Z,88.29
2022-12-01T03:55:42.343Z,87.89
2022-12-01T03:56:54.057Z,87.98
2022-12-01T03:58:03.158Z,88.29
2022-12-01T03:59:07.698Z,88.11
2022-12-01T04:00:12.868Z,88.28
2022-12-01T04:01:14.993Z,88.45
2022-12-01T04:02:17.743Z,88.27
2022-12-01T04:03:20.638Z,88.14
2022-12-01T04:04:22.459Z,88.18
2022-12-01T04:05:25.604Z,88.39
2022-12-01T04:06:28.816Z,88.29
2022-12-01T04:07:30.852Z,88.72
2022-12-01T04:08:34.273Z,89.27
2022-12-01T04:09:36.216Z,88.98
2022-12-01T04:10:38.020Z,89.00
2022-12-01T04:11:58.785Z,88.89
2022-12-01T04:13:01.144Z,89.01
2022-12-01T04:14:03.028Z,88.65
2022-12-01T04:15:09.036Z,89.34
2022-12-01T04:16:11.185Z,89.15
2022-12-01T04:17:13.085Z,89.35
2022-12-01T04:18:14.963Z,89.31
2022-12-01T04:19:16.808Z,89.37
2022-12-01T04:20:18.803Z,89.60
2022-12-01T04:21:20.643Z,89.46
2022-12-01T04:22:22.716Z,89.32
2022-12-01T04:23:42.977Z,88.97
2022-12-01T04:24:44.884Z,89.03
2022-12-01T04:25:46.763Z,89.41
2022-12-01T04:26:48.626Z,89.35
2022-12-01T04:27:50.535Z,89.06
2022-12-01T04:28:52.373Z,88.40
2022-12-01T04:29:54.253Z,88.56
2022-12-01T04:30:56.192Z,88.87
2022-12-01T04:31:58.381Z,88.64
2022-12-01T04:33:00.294Z,88.65
2022-12-01T04:34:02.476Z,88.07
2022-12-01T04:35:04.464Z,88.13
2022-12-01T04:36:06.538Z,87.89
2022-12-01T04:37:10.415Z,88.16
2022-12-01T04:38:12.432Z,88.79
2022-12-01T04:39:14.401Z,88.95
2022-12-01T04:40:16.837Z,88.51
2022-12-01T04:41:18.757Z,89.33
2022-12-01T04:42:20.584Z,88.89
2022-12-01T04:43:22.395Z,88.52
2022-12-01T04:44:24.233Z,89.07
2022-12-01T04:45:26.159Z,88.96
2022-12-01T04:46:28.070Z,89.02
2022-12-01T04:47:29.997Z,88.53
2022-12-01T04:48:32.210Z,88.28
2022-12-01T04:49:35.156Z,88.09
2022-12-01T04:50:37.109Z,88.65
2022-12-01T04:51:39.005Z,88.51
2022-12-01T04:52:40.991Z,88.70
2022-12-01T04:53:42.847Z,88.26
2022-12-01T04:54:44.685Z,88.41
2022-12-01T04:55:46.691Z,88.46
2022-12-01T04:56:48.481Z,88.81
2022-12-01T04:57:50.472Z,88.20
2022-12-01T04:58:52.371Z,88.53
2022-12-01T04:59:54.208Z,88.14
2022-12-01T05:00:56.261Z,88.36
2022-12-01T05:01:58.320Z,88.17
2022-12-01T05:03:00.560Z,88.13
2022-12-01T05:04:02.506Z,88.50
2022-12-01T05:05:07.102Z,88.42
2022-12-01T05:06:10.752Z,88.12
2022-12-01T05:07:12.567Z,88.52
2022-12-01T05:08:14.438Z,88.68
2022-12-01T05:09:17.830Z,88.10
2022-12-01T05:10:19.938Z,88.00
2022-12-01T05:11:21.903Z,88.33
2022-12-01T05:12:23.717Z,87.82
2022-12-01T05:13:25.646Z,87.75
2022-12-01T05:14:27.559Z,87.49
2022-12-01T05:15:29.402Z,87.93
2022-12-01T05:16:32.759Z,87.76
2022-12-01T05:17:37.070Z,87.70
2022-12-01T05:18:39.218Z,87.59
2022-12-01T05:19:59.846Z,88.01
2022-12-01T05:21:03.707Z,87.59
2022-12-01T05:22:06.919Z,87.57
2022-12-01T05:23:13.572Z,88.04
2022-12-01T05:24:19.509Z,87.54
2022-12-01T05:25:21.392Z,88.01
2022-12-01T05:26:23.385Z,87.43
2022-12-01T05:27:25.360Z,87.86
2022-12-01T05:28:27.768Z,87.52
2022-12-01T05:29:29.702Z,87.73
2022-12-01T05:30:31.526Z,87.54
2022-12-01T05:31:33.488Z,87.71
2022-12-01T05:32:35.447Z,87.74
2022-12-01T05:33:37.289Z,87.69
2022-12-01T05:34:39.124Z,87.46
2022-12-01T05:35:41.381Z,88.28
2022-12-01T05:36:43.430Z,87.67
2022-12-01T05:37:45.284Z,88.00
2022-12-01T05:38:47.144Z,88.78
2022-12-01T05:39:49.116Z,88.01
2022-12-01T05:40:52.675Z,88.83
2022-12-01T05:41:54.592Z,88.54
2022-12-01T05:42:57.059Z,88.75
2022-12-01T05:43:59.062Z,88.82
2022-12-01T05:45:00.973Z,88.16
2022-12-01T05:46:02.948Z,88.33
2022-12-01T05:47:04.818Z,88.20
2022-12-01T05:48:06.637Z,88.22
2022-12-01T05:49:09.957Z,88.73
2022-12-01T05:50:11.802Z,88.65
2022-12-01T05:51:15.102Z,87.93
2022-12-01T05:52:17.172Z,88.39
2022-12-01T05:53:19.100Z,87.99
2022-12-01T05:54:20.980Z,87.96
2022-12-01T05:55:22.836Z,87.83
2022-12-01T05:56:24.707Z,88.07
2022-12-01T05:57:26.714Z,87.86
2022-12-01T05:58:28.745Z,87.64
2022-12-01T05:59:30.708Z,87.56
2022-12-01T06:00:32.853Z,87.89
2022-12-01T06:01:34.734Z,88.00
2022-12-01T06:02:36.643Z,87.96
2022-12-01T06:03:38.516Z,87.40
2022-12-01T06:04:42.032Z,87.95
2022-12-01T06:05:43.884Z,87.56
2022-12-01T06:06:45.763Z,87.62
2022-12-01T06:07:47.576Z,87.87
2022-12-01T06:08:49.478Z,87.99
2022-12-01T06:09:52.034Z,87.59
2022-12-01T06:10:54.022Z,87.60
2022-12-01T06:11:55.874Z,87.69
2022-12-01T06:12:57.695Z,87.60
2022-12-01T06:13:59.557Z,87.87
2022-12-01T06:15:03.023Z,88.14
2022-12-01T06:16:05.958Z,87.48
2022-12-01T06:17:07.731Z,87.89
2022-12-01T06:18:09.728Z,87.52
2022-12-01T06:19:11.610Z,87.84
2022-12-01T06:20:13.636Z,87.60
2022-12-01T06:21:15.561Z,88.18
2022-12-01T06:22:17.443Z,87.56
2022-12-01T06:23:19.391Z,88.21
2022-12-01T06:24:21.206Z,88.03
2022-12-01T06:25:24.019Z,88.36
2022-12-01T06:26:26.108Z,88.90
2022-12-01T06:27:28.102Z,88.95
2022-12-01T06:28:29.956Z,89.14
2022-12-01T06:29:32.003Z,88.66
2022-12-01T06:30:35.021Z,89.02
2022-12-01T06:31:37.059Z,88.46
2022-12-01T06:32:38.972Z,88.45
2022-12-01T06:33:40.872Z,88.38
2022-12-01T06:34:43.980Z,88.75
2022-12-01T06:35:45.903Z,88.26
2022-12-01T06:36:47.789Z,88.60
2022-12-01T06:37:49.726Z,88.61
2022-12-01T06:38:51.562Z,88.76
2022-12-01T06:39:53.433Z,88.50
2022-12-01T06:40:55.369Z,88.29
2022-12-01T06:41:57.213Z,88.40
2022-12-01T06:43:02.890Z,88.47
2022-12-01T06:44:06.108Z,88.40
2022-12-01T06:45:08.188Z,88.97
2022-12-01T06:46:10.130Z,88.98
2022-12-01T06:47:12.037Z,88.63
2022-12-01T06:48:14.087Z,88.69
2022-12-01T06:49:17.092Z,88.28
2022-12-01T06:50:19.071Z,88.82
2022-12-01T06:51:21.067Z,88.34
2022-12-01T06:52:23.083Z,88.63
2022-12-01T06:53:26.115Z,88.32
2022-12-01T06:54:28.014Z,88.37
2022-12-01T06:55:29.902Z,88.09
2022-12-01T06:56:32.121Z,88.38
2022-12-01T06:57:34.831Z,87.93
2022-12-01T06:58:37.136Z,88.25
2022-12-01T06:59:39.375Z,87.91
2022-12-01T07:00:41.385Z,88.06
2022-12-01T07:01:43.318Z,87.87
2022-12-01T07:02:45.695Z,87.83
2022-12-01T07:03:48.515Z,87.84
2022-12-01T07:04:50.371Z,88.13
2022-12-01T07:05:56.655Z,88.18
2022-12-01T07:06:58.638Z,88.16
2022-12-01T07:08:01.355Z,88.07
2022-12-01T07:09:03.536Z,88.26
2022-12-01T07:10:05.971Z,88.53
2022-12-01T07:11:09.208Z,88.48
2022-12-01T07:12:11.102Z,88.41
2022-12-01T07:13:13.298Z,88.59
2022-12-01T07:14:21.938Z,88.81
2022-12-01T07:15:24.691Z,88.56
2022-12-01T07:16:26.866Z,88.80
2022-12-01T07:17:28.883Z,88.55
2022-12-01T07:18:30.937Z,88.63
2022-12-01T07:19:32.826Z,89.03
2022-12-01T07:20:34.697Z,88.71
2022-12-01T07:21:36.597Z,89.03
2022-12-01T07:22:39.864Z,88.72
2022-12-01T07:23:42.028Z,88.53
2022-12-01T07:24:43.842Z,88.54
2022-12-01T07:25:45.848Z,88.31
2022-12-01T07:26:48.585Z,88.90
2022-12-01T07:27:50.529Z,89.08
2022-12-01T07:28:53.285Z,89.06
2022-12-01T07:29:55.144Z,89.05
2022-12-01T07:31:03.948Z,88.73
2022-12-01T07:32:07.155Z,88.74
2022-12-01T07:33:09.131Z,88.53
2022-12-01T07:34:14.062Z,88.43
2022-12-01T07:35:15.938Z,88.53
2022-12-01T07:36:17.834Z,88.81
2022-12-01T07:37:19.782Z,88.57
2022-12-01T07:38:22.448Z,88.82
2022-12-01T07:39:24.481Z,89.10
2022-12-01T07:40:26.586Z,89.02
2022-12-01T07:41:28.403Z,88.92
2022-12-01T07:42:30.379Z,89.35
2022-12-01T07:43:32.926Z,89.15
2022-12-01T07:44:34.961Z,89.13
2022-12-01T07:45:36.801Z,88.91
2022-12-01T07:46:38.739Z,88.96
2022-12-01T07:47:40.784Z,89.10
2022-12-01T07:48:43.012Z,88.79
2022-12-01T07:49:45.155Z,88.73
2022-12-01T07:50:47.193Z,89.10
2022-12-01T07:51:49.050Z,88.55
2022-12-01T07:52:51.495Z,88.46
2022-12-01T07:53:54.874Z,88.81
2022-12-01T07:54:56.667Z,88.65
2022-12-01T07:56:05.529Z,88.55
2022-12-01T07:57:10.405Z,88.38
2022-12-01T07:58:12.276Z,88.06
2022-12-01T07:59:14.209Z,88.55
2022-12-01T08:00:16.251Z,88.21
2022-12-01T08:01:19.983Z,87.99
2022-12-01T08:02:22.234Z,88.24
2022-12-01T08:03:26.173Z,88.71
2022-12-01T08:04:28.042Z,88.71
2022-12-01T08:05:29.881Z,89.10
2022-12-01T08:06:31.845Z,89.38
2022-12-01T08:07:33.895Z,89.16
2022-12-01T08:08:36.835Z,89.37
2022-12-01T08:09:38.828Z,89.05
2022-12-01T08:10:40.663Z,88.88
2022-12-01T08:11:42.597Z,89.05
2022-12-01T08:12:46.832Z,89.07
2022-12-01T08:13:49.092Z,89.28
2022-12-01T08:14:50.986Z,89.44
2022-12-01T08:15:52.875Z,89.33
2022-12-01T08:16:54.727Z,89.17
2022-12-01T08:17:56.592Z,89.29
2022-12-01T08:18:58.695Z,89.30
2022-12-01T08:20:00.508Z,89.26
2022-12-01T08:21:02.491Z,89.36
2022-12-01T08:22:04.728Z,89.63
2022-12-01T08:23:08.458Z,89.37
2022-12-01T08:24:10.861Z,88.96
2022-12-01T08:25:12.743Z,88.85
2022-12-01T08:26:18.672Z,88.88
2022-12-01T08:27:20.510Z,88.78
2022-12-01T08:28:22.528Z,89.10
2022-12-01T08:29:24.451Z,89.19
2022-12-01T08:30:26.717Z,89.42
2022-12-01T08:31:30.390Z,89.17
2022-12-01T08:32:32.302Z,89.24
2022-12-01T08:33:34.220Z,89.13
2022-12-01T08:34:39.183Z,89.25
2022-12-01T08:35:41.224Z,89.22
2022-12-01T08:36:43.143Z,88.87
2022-12-01T08:37:44.919Z,88.55
2022-12-01T08:38:48.932Z,88.95
2022-12-01T08:39:51.165Z,88.76
2022-12-01T08:40:56.709Z,88.83
2022-12-01T08:41:58.670Z,89.23
2022-12-01T08:43:00.457Z,89.45
2022-12-01T08:44:02.343Z,89.43
2022-12-01T08:45:06.219Z,89.44
2022-12-01T08:46:08.733Z,89.30
2022-12-01T08:47:14.316Z,89.43
2022-12-01T08:48:19.184Z,89.34
2022-12-01T08:49:20.949Z,89.24
2022-12-01T08:50:22.825Z,88.99
2022-12-01T08:51:26.281Z,88.62
2022-12-01T08:52:32.056Z,88.66
2022-12-01T08:53:34.977Z,89.07
2022-12-01T08:54:36.758Z,89.21
2022-12-01T08:55:38.747Z,89.10
2022-12-01T08:56:42.411Z,89.49
2022-12-01T08:57:44.325Z,89.44
2022-12-01T08:58:46.285Z,89.57
2022-12-01T08:59:50.164Z,89.37
2022-12-01T09:00:52.605Z,89.61
2022-12-01T09:01:54.523Z,89.94
2022-12-01T09:02:56.437Z,90.18
2022-12-01T09:04:12.224Z,90.29
2022-12-01T09:05:14.221Z,90.41
2022-12-01T09:06:18.369Z,90.62
2022-12-01T09:07:26.161Z,90.76
2022-12-01T09:08:31.981Z,90.01
2022-12-01T09:09:35.628Z,90.08
2022-12-01T09:10:37.542Z,90.22
2022-12-01T09:11:40.244Z,90.09
2022-12-01T09:12:42.119Z,89.74
2022-12-01T09:13:46.006Z,89.50
2022-12-01T09:14:50.057Z,89.30
2022-12-01T09:16:15.140Z,88.92
2022-12-01T09:17:19.188Z,88.99
2022-12-01T09:18:21.032Z,88.63
2022-12-01T09:19:24.896Z,89.10
2022-12-01T09:20:27.285Z,88.91
2022-12-01T09:21:31.186Z,88.92
2022-12-01T09:22:34.969Z,88.93
2022-12-01T09:23:36.858Z,88.86
2022-12-01T09:24:38.986Z,88.89
2022-12-01T09:25:40.945Z,89.41
2022-12-01T09:26:42.938Z,88.93
2022-12-01T09:27:45.005Z,88.95
2022-12-01T09:28:47.949Z,88.99
2022-12-01T09:29:50.036Z,89.04
2022-12-01T09:30:52.097Z,88.67
2022-12-01T09:31:57.591Z,88.94
2022-12-01T09:33:00.271Z,88.81
2022-12-01T09:34:04.019Z,88.83
2022-12-01T09:35:06.034Z,88.79
2022-12-01T09:36:08.800Z,88.53
2022-12-01T09:37:10.784Z,88.32
2022-12-01T09:38:12.752Z,88.58
2022-12-01T09:39:19.224Z,87.93
2022-12-01T09:40:21.875Z,88.14
2022-12-01T09:41:42.263Z,87.69
2022-12-01T09:42:46.178Z,87.23
2022-12-01T09:43:52.831Z,87.16
2022-12-01T09:44:57.340Z,87.50
2022-12-01T09:46:02.633Z,87.34
2022-12-01T09:47:26.743Z,87.40
2022-12-01T09:48:42.968Z,87.71
2022-12-01T09:49:50.143Z,87.26
2022-12-01T09:50:52.222Z,86.91
2022-12-01T09:51:54.735Z,86.94
2022-12-01T09:53:02.639Z,87.27
2022-12-01T09:54:04.704Z,87.54
2022-12-01T09:55:11.555Z,87.94
2022-12-01T09:56:21.043Z,87.62
2022-12-01T09:57:22.866Z,87.59
2022-12-01T09:58:31.101Z,87.41
2022-12-01T09:59:36.039Z,87.47
2022-12-01T10:00:43.467Z,87.05
2022-12-01T10:01:47.271Z,86.92
2022-12-01T10:03:15.791Z,87.37
2022-12-01T10:04:21.407Z,87.17
2022-12-01T10:05:25.655Z,87.47
2022-12-01T10:06:35.239Z,87.37
2022-12-01T10:07:39.711Z,87.02
2022-12-01T10:08:56.581Z,86.64
2022-12-01T10:09:59.741Z,87.14
2022-12-01T10:11:16.898Z,86.53
2022-12-01T10:12:20.237Z,86.59
2022-12-01T10:13:24.021Z,87.14
2022-12-01T10:14:29.195Z,87.11
2022-12-01T10:15:40.026Z,87.39
2022-12-01T10:17:02.205Z,87.38
2022-12-01T10:18:04.085Z,86.64
2022-12-01T10:19:09.285Z,86.88
2022-12-01T10:20:15.663Z,86.85
2022-12-01T10:21:29.563Z,87.32
2022-12-01T10:22:57.515Z,87.51
2022-12-01T10:24:17.796Z,87.60
2022-12-01T10:25:23.889Z,87.06
2022-12-01T10:26:31.997Z,87.46
2022-12-01T10:27:33.787Z,87.13
2022-12-01T10:28:41.221Z,87.03
2022-12-01T10:29:48.060Z,86.88
2022-12-01T10:30:52.036Z,86.21
2022-12-01T10:31:55.811Z,86.37
2022-12-01T10:33:07.410Z,85.57
2022-12-01T10:34:16.279Z,85.28
2022-12-01T10:35:19.618Z,85.69
2022-12-01T10:36:21.951Z,85.15
2022-12-01T10:37:26.095Z,85.53
2022-12-01T10:38:32.914Z,84.72
2022-12-01T10:39:39.197Z,84.87
2022-12-01T10:40:42.899Z,84.73
2022-12-01T10:41:45.010Z,85.00
2022-12-01T10:42:48.067Z,84.05
2022-12-01T10:43:51.617Z,84.12
2022-12-01T10:44:55.142Z,83.33
2022-12-01T10:45:59.480Z,83.95
2022-12-01T10:47:02.657Z,83.72
2022-12-01T10:48:19.360Z,82.96
2022-12-01T10:49:21.426Z,83.28
2022-12-01T10:50:27.449Z,82.69
2022-12-01T10:51:29.304Z,83.18
2022-12-01T10:52:36.202Z,83.26
2022-12-01T10:53:38.105Z,83.34
2022-12-01T10:54:41.026Z,83.04
2022-12-01T10:55:47.751Z,83.00
2022-12-01T10:56:51.416Z,83.07
2022-12-01T10:57:55.519Z,82.49
2022-12-01T10:58:58.856Z,82.50
2022-12-01T11:00:02.560Z,82.47
2022-12-01T11:01:06.260Z,82.04
2022-12-01T11:02:15.599Z,82.72
2022-12-01T11:03:21.989Z,82.68
2022-12-01T11:04:36.520Z,82.63
2022-12-01T11:05:41.290Z,82.99
2022-12-01T11:06:48.954Z,82.58
2022-12-01T11:07:50.908Z,83.02
2022-12-01T11:09:07.740Z,82.10
2022-12-01T11:10:28.335Z,83.02
2022-12-01T11:11:34.980Z,82.25
2022-12-01T11:12:36.912Z,82.12
2022-12-01T11:13:42.274Z,82.24
2022-12-01T11:14:52.397Z,82.90
2022-12-01T11:16:01.808Z,82.70
2022-12-01T11:17:22.062Z,82.32
2022-12-01T11:18:32.390Z,83.22
2022-12-01T11:19:34.965Z,81.65
2022-12-01T11:20:41.074Z,82.21
2022-12-01T11:21:53.523Z,82.57
2022-12-01T11:23:18.913Z,82.70
2022-12-01T11:24:40.019Z,81.79
2022-12-01T11:25:41.933Z,82.75
2022-12-01T11:26:43.900Z,82.10
2022-12-01T11:27:50.756Z,81.80
2022-12-01T11:29:01.562Z,82.38
2022-12-01T11:30:20.994Z,82.57
2022-12-01T11:31:26.834Z,82.07
2022-12-01T11:32:30.588Z,81.94
2022-12-01T11:33:37.838Z,81.93
2022-12-01T11:34:39.706Z,82.45
2022-12-01T11:35:47.133Z,81.43
2022-12-01T11:36:51.195Z,82.15
2022-12-01T11:38:27.660Z,81.74
2022-12-01T11:39:26.993Z,81.77
2022-12-01T11:40:30.781Z,81.90
2022-12-01T11:41:41.140Z,82.53
2022-12-01T11:42:47.688Z,81.36
2022-12-01T11:44:00.749Z,81.96
2022-12-01T11:45:08.573Z,82.21
2022-12-01T11:46:10.564Z,82.30
2022-12-01T11:47:23.110Z,81.51
2022-12-01T11:48:27.160Z,81.57
2022-12-01T11:49:29.715Z,82.30
2022-12-01T11:50:33.779Z,82.02
2022-12-01T11:51:39.534Z,82.01
2022-12-01T11:52:47.810Z,81.59
2022-12-01T11:53:50.401Z,81.67
2022-12-01T11:55:02.352Z,81.41
2022-12-01T11:56:13.340Z,81.53
2022-12-01T11:57:33.772Z,81.29
2022-12-01T11:58:36.361Z,82.15
2022-12-01T11:59:38.253Z,81.23
2022-12-01T12:00:50.146Z,82.05
2022-12-01T12:01:54.788Z,82.29
2022-12-01T12:03:15.324Z,80.99
2022-12-01T12:04:25.420Z,81.46
2022-12-01T12:05:36.258Z,81.02
2022-12-01T12:06:48.862Z,81.92
2022-12-01T12:08:05.022Z,81.64
2022-12-01T12:09:16.260Z,81.51
2022-12-01T12:10:36.278Z,82.03
2022-12-01T12:11:38.108Z,81.70
2022-12-01T12:12:42.700Z,81.14
2022-12-01T12:13:53.757Z,81.24
2022-12-01T12:14:58.647Z,80.98
2022-12-01T12:16:11.845Z,81.52
2022-12-01T12:17:23.782Z,81.31
2022-12-01T12:18:28.846Z,81.06
2022-12-01T12:20:07.110Z,80.31
2022-12-01T12:21:15.254Z,80.95
2022-12-01T12:22:24.893Z,81.01
2022-12-01T12:23:45.579Z,80.44
2022-12-01T12:24:55.700Z,80.94
2022-12-01T12:26:03.432Z,80.70
2022-12-01T12:27:20.429Z,80.59
2022-12-01T12:28:31.840Z,80.61
2022-12-01T12:29:47.589Z,80.12
2022-12-01T12:31:10.456Z,79.62
2022-12-01T12:32:24.255Z,79.75
2022-12-01T12:33:26.061Z,80.44
2022-12-01T12:34:35.095Z,80.51
2022-12-01T12:35:36.837Z,80.04
2022-12-01T12:36:44.590Z,80.09
2022-12-01T12:37:55.136Z,79.90
2022-12-01T12:39:16.987Z,79.16
2022-12-01T12:40:19.208Z,78.85
2022-12-01T12:41:36.268Z,79.50
2022-12-01T12:43:07.431Z,79.04
2022-12-01T12:44:18.162Z,79.28
2022-12-01T12:45:25.436Z,79.14
2022-12-01T12:46:33.547Z,79.37
2022-12-01T12:47:45.634Z,79.39
2022-12-01T12:49:19.623Z,79.59
2022-12-01T12:50:45.463Z,79.37
2022-12-01T12:52:08.913Z,79.07
2022-12-01T12:53:16.124Z,79.14
2022-12-01T12:54:21.509Z,79.18
2022-12-01T12:55:41.909Z,79.22
2022-12-01T12:56:45.638Z,79.83
2022-12-01T12:57:51.641Z,79.18
2022-12-01T12:58:56.457Z,78.23
2022-12-01T13:00:02.640Z,78.22
2022-12-01T13:01:12.205Z,78.47
2022-12-01T13:02:21.139Z,77.81
2022-12-01T13:03:35.841Z,78.66
2022-12-01T13:04:45.956Z,77.93
2022-12-01T13:06:01.184Z,77.68
2022-12-01T13:07:06.487Z,77.91
2022-12-01T13:08:19.724Z,78.11
2022-12-01T13:09:28.884Z,78.01
2022-12-01T13:10:49.195Z,77.78
2022-12-01T13:11:51.194Z,77.53
2022-12-01T13:13:12.006Z,77.81
2022-12-01T13:14:36.525Z,77.26
2022-12-01T13:15:39.536Z,78.28
2022-12-01T13:16:45.642Z,78.45
2022-12-01T13:17:55.398Z,78.17
2022-12-01T13:19:05.173Z,78.49
2022-12-01T13:20:07.993Z,78.60
2022-12-01T13:21:14.521Z,77.85
2022-12-01T13:22:17.846Z,78.92
2022-12-01T13:23:22.085Z,78.29
2022-12-01T13:24:27.748Z,77.90
2022-12-01T13:25:33.592Z,78.48
2022-12-01T13:26:36.980Z,78.94
2022-12-01T13:27:40.849Z,78.21
2022-12-01T13:28:46.270Z,79.09
2022-12-01T13:29:50.374Z,79.31
2022-12-01T13:31:07.656Z,78.69
2022-12-01T13:32:24.506Z,79.49
2022-12-01T13:33:26.510Z,78.77
2022-12-01T13:34:28.326Z,78.60
2022-12-01T13:35:39.931Z,79.42
2022-12-01T13:36:48.534Z,79.71
2022-12-01T13:37:50.595Z,79.34
2022-12-01T13:38:58.674Z,80.08
2022-12-01T13:40:12.569Z,79.19
2022-12-01T13:41:20.242Z,79.71
2022-12-01T13:42:24.481Z,79.17
2022-12-01T13:43:26.365Z,78.95
2022-12-01T13:44:34.112Z,79.50
2022-12-01T13:45:37.445Z,79.63
2022-12-01T13:46:42.312Z,79.17
2022-12-01T13:47:47.041Z,78.91
2022-12-01T13:48:49.154Z,78.85
2022-12-01T13:49:52.135Z,79.11
2022-12-01T13:50:56.006Z,78.80
2022-12-01T13:52:16.249Z,79.31
2022-12-01T13:53:18.152Z,79.39
2022-12-01T13:54:30.353Z,79.96
2022-12-01T13:55:32.654Z,79.41
2022-12-01T13:56:39.213Z,80.00
2022-12-01T13:57:48.292Z,79.60
2022-12-01T13:58:51.422Z,79.49
2022-12-01T13:59:59.531Z,79.31
2022-12-01T14:01:20.022Z,78.64
2022-12-01T14:02:22.333Z,79.53